FW6146 Canton MA US current weather conditions

sailwx.info

Wind from 231 at 4 knots gusting 6

Air temperature 6.7° C
Dewpoint -2.5° C

Last reported at 2019-Dec-15 20:02 UTC.
Time now 2019-Dec-15 21:10 UTC

Location: N 42°12' W 071°08'.
View on Google Maps.

See reports from other nearby stations

  
Tides and Currents Weather Stations Pressure Air Temp Water Temp Dewpoint Dewpoint Depression Visibility Wind Speed Wind Dir Waves Ship Positions
date/time (UTC)wind fromknots sea level pressurealtimeterstation pressurevisibilityair tempwater tempwave heightnotes
2019-Dec-15 20:02 231 4 gusting 6 6.7
2019-Dec-15 19:52 238 4 gusting 6 7.2
2019-Dec-15 19:42 253 6 gusting 8 7.2
2019-Dec-15 19:33 231 4 gusting 6 7.2
2019-Dec-15 19:22 260 5 gusting 6 7.8
2019-Dec-15 19:10 242 3 gusting 5 7.8
2019-Dec-15 19:02 232 6 gusting 7 8.3
2019-Dec-15 18:52 230 5 gusting 6 8.3
2019-Dec-15 18:42 245 6 gusting 8 7.8
2019-Dec-15 18:32 241 5 gusting 6 7.8
2019-Dec-15 18:23 238 6 gusting 7 7.8
2019-Dec-15 18:12 255 5 gusting 6 7.8
2019-Dec-15 18:00 311 6 gusting 8 7.8
2019-Dec-15 17:50 259 5 gusting 6 7.8
2019-Dec-15 17:40 265 5 gusting 8 8.3
2019-Dec-15 17:30 261 6 gusting 8 7.8
2019-Dec-15 17:20 234 5 gusting 6 8.3
2019-Dec-15 17:10 261 6 gusting 8 8.9
2019-Dec-15 17:02 234 4 gusting 6 7.8
2019-Dec-15 16:52 335 2 gusting 5 7.8
2019-Dec-15 16:42 248 5 gusting 7 7.8
2019-Dec-15 16:32 107 4 gusting 6 7.2
2019-Dec-15 16:22 263 5 gusting 7 7.8
2019-Dec-15 16:12 230 6 gusting 8 7.2
2019-Dec-15 16:00 235 6 gusting 8 7.2
2019-Dec-15 15:50 233 4 gusting 8 7.2
2019-Dec-15 15:40 243 3 gusting 6 7.2
2019-Dec-15 15:30 244 5 gusting 7 7.2
2019-Dec-15 15:20 243 5 gusting 6 7.2
2019-Dec-15 15:10 231 4 gusting 5 7.2
2019-Dec-15 15:02 225 6 gusting 7 6.7
2019-Dec-15 14:53 257 4 gusting 6 6.7
2019-Dec-15 14:42 253 4 gusting 6 6.1
2019-Dec-15 14:32 243 5 gusting 6 6.1
2019-Dec-15 14:22 247 6 gusting 7 6.1
2019-Dec-15 14:12 237 6 gusting 8 6.1
2019-Dec-15 14:02 248 3 gusting 4 6.1
2019-Dec-15 13:52 267 3 gusting 5 6.1
2019-Dec-15 13:40 228 5 gusting 6 6.1
2019-Dec-15 13:30 203 5 gusting 6 6.1
2019-Dec-15 13:20 261 6 gusting 7 6.1
2019-Dec-15 13:10 237 4 gusting 5 6.1
2019-Dec-15 13:02 239 4 gusting 5 5.6
2019-Dec-15 12:52 245 4 gusting 7 5.6
2019-Dec-15 12:42 248 5 gusting 7 5.6
2019-Dec-15 12:33 254 5 gusting 6 5.6
2019-Dec-15 12:22 225 3 gusting 4 5.6
2019-Dec-15 12:12 256 6 gusting 6 5.6
2019-Dec-15 12:02 231 5 gusting 5 5.6
2019-Dec-15 11:52 256 4 gusting 6 5.6
2019-Dec-15 11:42 248 3 gusting 5 5.6
2019-Dec-15 11:32 225 4 gusting 6 5.6
2019-Dec-15 11:20 258 5 gusting 7 5.6
2019-Dec-15 11:10 006 1 gusting 2 5.6
2019-Dec-15 11:02 235 4 gusting 6 5.6
2019-Dec-15 10:52 296 2 gusting 4 5.6
2019-Dec-15 10:42 220 4 gusting 5 5.6
2019-Dec-15 10:33 248 6 gusting 7 5.6
2019-Dec-15 10:22 251 5 gusting 6 5.6
2019-Dec-15 10:10 248 3 gusting 3 5.6
2019-Dec-15 10:00 228 4 gusting 6 5.6
2019-Dec-15 09:50 209 4 gusting 6 5.6
2019-Dec-15 09:40 257 3 gusting 6 5.6
2019-Dec-15 09:30 228 4 gusting 6 5.6
2019-Dec-15 09:20 228 4 gusting 6 5.6
2019-Dec-15 09:10 262 5 gusting 6 5.6
2019-Dec-15 09:03 258 4 gusting 5 5.6
2019-Dec-15 08:52 271 4 gusting 6 5.6
2019-Dec-15 08:43 246 3 gusting 4 5.6
2019-Dec-15 08:32 292 4 gusting 6 5.6
2019-Dec-15 08:22 280 3 gusting 4 5.6
2019-Dec-15 08:13 252 4 gusting 5 6.1
2019-Dec-15 08:02 270 4 gusting 6 6.1
2019-Dec-15 07:50 258 4 gusting 5 6.1
2019-Dec-15 07:40 251 3 gusting 5 6.7
2019-Dec-15 07:30 304 3 gusting 6 6.7
2019-Dec-15 07:20 237 3 gusting 6 7.2
2019-Dec-15 07:10 261 4 gusting 6 7.2
2019-Dec-15 07:03 233 4 gusting 5 7.8
2019-Dec-15 06:52 248 4 gusting 6 8.3
2019-Dec-15 06:43 240 4 gusting 6 9.4
2019-Dec-15 06:32 240 4 gusting 6 10.0
2019-Dec-15 06:22 237 5 gusting 6 10.0
2019-Dec-15 06:12 228 3 gusting 4 10.0
2019-Dec-15 06:02 216 3 gusting 4 10.0
2019-Dec-15 05:50 232 4 gusting 5 10.0
2019-Dec-15 05:40 232 3 gusting 5 10.0
2019-Dec-15 05:30 263 4 gusting 6 10.0
2019-Dec-15 05:20 248 4 gusting 5 10.6
2019-Dec-15 05:10 259 3 gusting 3 10.6
2019-Dec-15 05:03 255 4 gusting 6 10.6
2019-Dec-15 04:52 232 3 gusting 5 10.6
2019-Dec-15 04:43 186 5 gusting 6 10.6
2019-Dec-15 04:32 237 4 gusting 5 11.1
2019-Dec-15 04:22 223 3 gusting 4 11.1
2019-Dec-15 04:12 230 4 gusting 5 11.1
2019-Dec-15 04:02 254 5 gusting 6 11.7
2019-Dec-15 03:53 259 6 gusting 9 11.7
2019-Dec-15 03:42 202 6 gusting 8 11.7
2019-Dec-15 03:30 225 5 gusting 6 11.7
2019-Dec-15 03:20 224 4 gusting 5 12.2
2019-Dec-15 03:10 239 4 gusting 6 12.2
2019-Dec-15 03:02 223 3 gusting 5 12.2
2019-Dec-15 02:52 217 5 gusting 6 12.2
2019-Dec-15 02:43 217 4 gusting 6 12.2
2019-Dec-15 02:32 212 4 gusting 6 12.2
2019-Dec-15 02:22 229 4 gusting 5 12.8
2019-Dec-15 02:12 269 4 gusting 6 12.8
2019-Dec-15 02:03 218 3 gusting 4 12.8
2019-Dec-15 01:52 210 3 gusting 4 12.8
2019-Dec-15 01:42 251 3 gusting 4 12.8
2019-Dec-15 01:30 203 2 gusting 2 13.3
2019-Dec-15 01:20 265 3 gusting 4 13.3
2019-Dec-15 01:10 180 5 gusting 5 13.3
2019-Dec-15 01:02 219 2 gusting 3 13.9
2019-Dec-15 00:52 209 4 gusting 7 13.9
2019-Dec-15 00:43 231 4 gusting 6 13.9
2019-Dec-15 00:32 201 4 gusting 5 13.9
2019-Dec-15 00:23 239 4 gusting 5 13.9
2019-Dec-15 00:12 203 3 gusting 5 13.9
2019-Dec-15 00:02 211 4 gusting 5 13.9
2019-Dec-14 23:52 208 1 gusting 2 13.9
2019-Dec-14 23:42 236 2 gusting 4 13.9
2019-Dec-14 23:33 225 2 gusting 3 13.9
2019-Dec-14 23:22 208 2 gusting 3 13.9
2019-Dec-14 23:10 197 2 gusting 4 13.9
2019-Dec-14 23:02 218 2 gusting 5 13.9
2019-Dec-14 22:52 216 2 gusting 3 13.9
2019-Dec-14 22:42 238 3 gusting 5 13.9
2019-Dec-14 22:32 208 2 gusting 4 13.9
2019-Dec-14 22:23 227 2 gusting 3 13.9
2019-Dec-14 22:12 150 1 gusting 2 13.9
2019-Dec-14 22:00 13.9
2019-Dec-14 21:50 225 13.9
2019-Dec-14 21:40 203 0 gusting 2 14.4
2019-Dec-14 21:30 213 1 gusting 2 14.4
2019-Dec-14 21:20 13.9
2019-Dec-14 21:10 203 0 gusting 1 14.4
2019-Dec-14 21:02 13.9
2019-Dec-14 20:53 180 13.9
2019-Dec-14 20:42 169 1 gusting 2 13.9
2019-Dec-14 20:32 135 13.9
2019-Dec-14 20:22 13.9
2019-Dec-14 20:12 14.4
2019-Dec-14 20:02 13.9
2019-Dec-14 19:52 113 13.9
2019-Dec-14 19:40 13.9
2019-Dec-14 19:30 203 13.3
2019-Dec-14 19:20 090 12.8
2019-Dec-14 19:10 068 12.8
2019-Dec-14 19:02 225 12.8
2019-Dec-14 18:52 338 12.8
2019-Dec-14 18:42 12.8
2019-Dec-14 18:33 12.8
2019-Dec-14 18:22 248 12.8
2019-Dec-14 18:10 13.3
2019-Dec-14 18:00 13.3
2019-Dec-14 17:50 270 13.9
2019-Dec-14 17:40 270 14.4
2019-Dec-14 17:30 199 1 gusting 2 15.0
2019-Dec-14 17:20 259 0 gusting 1 15.0
2019-Dec-14 17:10 225 15.0
2019-Dec-14 17:03 190 0 gusting 1 15.0
2019-Dec-14 16:52 212 0 gusting 1 15.0
2019-Dec-14 16:43 204 2 gusting 3 15.0
2019-Dec-14 16:32 238 1 gusting 2 15.0
2019-Dec-14 16:22 15.0
2019-Dec-14 16:13 216 0 gusting 2 14.4
2019-Dec-14 16:02 225 14.4
2019-Dec-14 15:50 13.9
2019-Dec-14 15:40 203 13.9
2019-Dec-14 15:30 113 13.3
2019-Dec-14 15:20 068 12.8
2019-Dec-14 15:10 12.8
2019-Dec-14 15:03 158 12.8
2019-Dec-14 14:52 12.8
2019-Dec-14 14:43 12.8
2019-Dec-14 14:32 113 12.8
2019-Dec-14 14:22 158 12.2
2019-Dec-14 14:12 225 12.2
2019-Dec-14 14:02 12.2
2019-Dec-14 13:52 12.2
2019-Dec-14 13:42 225 12.2
2019-Dec-14 13:30 12.2
2019-Dec-14 13:20 090 12.2
2019-Dec-14 13:10 045 11.7
2019-Dec-14 13:02 11.7
2019-Dec-14 12:52 113 0 gusting 1 11.7
2019-Dec-14 12:42 158 11.7
2019-Dec-14 12:32 11.7
2019-Dec-14 12:23 11.7
2019-Dec-14 12:12 11.7
2019-Dec-14 12:00 11.7
2019-Dec-14 11:50 11.7
2019-Dec-14 11:40 113 11.1
2019-Dec-14 11:30 180 10.6
2019-Dec-14 11:20 10.6
2019-Dec-14 10:52 9.4
2019-Dec-14 10:42 9.4
2019-Dec-14 10:32 090 9.4
2019-Dec-14 10:22 113 9.4
2019-Dec-14 10:12 9.4
2019-Dec-14 10:03 9.4
2019-Dec-14 09:52 113 9.4
2019-Dec-14 09:40 8.9
2019-Dec-14 09:30 8.9
2019-Dec-14 09:20 068 8.9
2019-Dec-14 09:02 158 8.3
2019-Dec-14 08:53 158 8.3
2019-Dec-14 08:42 8.3
2019-Dec-14 08:33 090 0 gusting 1 7.8
2019-Dec-14 08:22 090 0 gusting 1 7.8
2019-Dec-14 08:12 068 7.2
2019-Dec-14 08:02 083 0 gusting 1 7.2
2019-Dec-14 07:52 6.7
2019-Dec-14 07:42 6.7
2019-Dec-14 07:32 045 6.1
2019-Dec-14 07:20 6.1
2019-Dec-14 07:10 338 6.1
2019-Dec-14 07:03 6.1
2019-Dec-14 06:52 5.6
2019-Dec-14 06:42 045 5.0
2019-Dec-14 06:32 135 5.0
2019-Dec-14 06:22 4.4
2019-Dec-14 06:13 4.4
2019-Dec-14 06:02 338 5.0
2019-Dec-14 05:50 5.0
2019-Dec-14 05:40 5.0
2019-Dec-14 05:30 293 5.0
2019-Dec-14 05:20 068 5.0
2019-Dec-14 05:10 5.0
2019-Dec-14 05:03 068 4.4
2019-Dec-14 04:52 4.4
2019-Dec-14 04:42 4.4
2019-Dec-14 04:32 3.9
2019-Dec-14 04:22 068 3.9
2019-Dec-14 04:12 068 3.9
2019-Dec-14 04:02 3.3
2019-Dec-14 03:53 3.3
2019-Dec-14 03:42 225 3.3
2019-Dec-14 03:30 2.8
2019-Dec-14 03:20 2.8
2019-Dec-14 03:10 023 3.3
2019-Dec-14 03:02 3.3
2019-Dec-14 02:52 068 3.3
2019-Dec-14 02:43 113 2.8
2019-Dec-14 02:32 2.8
2019-Dec-14 02:23 2.8
2019-Dec-14 02:12 135 2.8
2019-Dec-14 02:02 113 2.8
2019-Dec-14 01:52 270 2.8
2019-Dec-14 01:42 2.8
2019-Dec-14 01:32 2.2
2019-Dec-14 01:22 045 2.2
2019-Dec-14 01:10 2.2
2019-Dec-14 01:02 2.2
2019-Dec-14 00:52 2.2
2019-Dec-14 00:42 2.2
2019-Dec-14 00:32 023 2.2
2019-Dec-14 00:22 045 2.2
2019-Dec-14 00:12 2.2
2019-Dec-14 00:03 1.7
2019-Dec-13 23:52 293 1.7
2019-Dec-13 23:40 1.7
2019-Dec-13 23:30 1.7
2019-Dec-13 23:20 113 1.7
2019-Dec-13 23:10 225 1.7
2019-Dec-13 23:02 225 1.7
2019-Dec-13 22:53 135 1.7
2019-Dec-13 22:42 1.7
2019-Dec-13 22:32 1.7
2019-Dec-13 22:22 1.7
2019-Dec-13 22:12 113 1.7
2019-Dec-13 22:02 068 1.7
2019-Dec-13 21:52 1.7
2019-Dec-13 21:43 1.7
2019-Dec-13 21:32 090 1.7
2019-Dec-13 21:20 1.7
2019-Dec-13 21:10 1.7
2019-Dec-13 21:02 1.7